Time;durP1;ratioP1;P1;durP2;ratioP2;P2;SDS_P1;SDS_P2;PMS_P1;PMS_P2;Temp;Humidity;BMP_temperature;BMP_pressure;BME280_temperature;BME280_humidity;BME280_pressure;Samples;Min_cycle;Max_cycle;Signal;HPM_P1;HPM_P2
2022/03/22 00:01:12;;;;;;;;;38.00;33.00;;;;;;;;110377;1261;19174;-49
2022/03/22 00:03:39;;;;;;;;;40.00;36.33;;;;;;;;110355;1262;17685;-47
2022/03/22 00:06:07;;;;;;;;;42.33;37.67;;;;;;;;110348;1262;19141;-48
2022/03/22 00:08:35;;;;;;;;;40.00;35.50;;;;;;;;110391;1262;19118;-48
2022/03/22 00:11:02;;;;;;;;;42.67;38.00;;;;;;;;110409;1262;17606;-48
2022/03/22 00:13:30;;;;;;;;;44.00;40.00;;;;;;;;110236;1264;19023;-48
2022/03/22 00:15:57;;;;;;;;;40.67;35.00;;;;;;;;110306;1262;17616;-46
2022/03/22 00:18:25;;;;;;;;;41.00;35.67;;;;;;;;110185;1261;23099;-51
2022/03/22 00:20:52;;;;;;;;;39.33;36.33;;;;;;;;110411;1262;17250;-48
2022/03/22 00:23:19;;;;;;;;;39.00;34.00;;;;;;;;110395;1262;17995;-48
2022/03/22 00:25:47;;;;;;;;;43.00;39.33;;;;;;;;110431;1261;22460;-47
2022/03/22 00:28:14;;;;;;;;;38.00;32.50;;;;;;;;110386;1261;17428;-49
2022/03/22 00:30:42;;;;;;;;;41.00;37.67;;;;;;;;110402;1261;19381;-49
2022/03/22 00:33:09;;;;;;;;;43.67;41.33;;;;;;;;110349;1261;20208;-48
2022/03/22 00:35:37;;;;;;;;;45.33;37.67;;;;;;;;110279;1261;18705;-49
2022/03/22 00:38:04;;;;;;;;;41.50;37.00;;;;;;;;110351;1261;17638;-48
2022/03/22 00:40:31;;;;;;;;;37.67;33.67;;;;;;;;110352;1261;17944;-48
2022/03/22 00:42:58;;;;;;;;;40.67;38.00;;;;;;;;110400;1262;17336;-48
2022/03/22 00:45:26;;;;;;;;;47.67;41.33;;;;;;;;110336;1261;17626;-48
2022/03/22 00:47:53;;;;;;;;;40.00;36.67;;;;;;;;110416;1262;17732;-49
2022/03/22 00:50:21;;;;;;;;;39.67;37.00;;;;;;;;110388;1262;17524;-49
2022/03/22 00:52:48;;;;;;;;;38.33;32.33;;;;;;;;110423;1261;20072;-47
2022/03/22 00:55:15;;;;;;;;;32.67;30.67;;;;;;;;110404;1261;23063;-48
2022/03/22 00:57:42;;;;;;;;;41.67;37.33;;;;;;;;110406;1261;18476;-49
2022/03/22 01:00:10;;;;;;;;;36.33;34.00;;;;;;;;110384;1261;19804;-48
2022/03/22 01:02:37;;;;;;;;;46.33;38.67;;;;;;;;110385;1261;17703;-50
2022/03/22 01:05:04;;;;;;;;;36.00;33.00;;;;;;;;110398;1261;19265;-48
2022/03/22 01:07:33;;;;;;;;;44.50;39.50;;;;;;;;110428;1262;22068;-47
2022/03/22 01:10:00;;;;;;;;;37.00;34.67;;;;;;;;110315;1261;17646;-47
2022/03/22 01:12:28;;;;;;;;;36.00;33.00;;;;;;;;110350;1262;17480;-49
2022/03/22 01:14:55;;;;;;;;;40.00;37.67;;;;;;;;110328;1262;22140;-49
2022/03/22 01:17:22;;;;;;;;;41.00;37.00;;;;;;;;110409;1261;17763;-48
2022/03/22 01:19:50;;;;;;;;;42.50;37.00;;;;;;;;110437;1261;17831;-49
2022/03/22 01:22:17;;;;;;;;;39.33;36.00;;;;;;;;110362;1262;18039;-50
2022/03/22 01:24:44;;;;;;;;;44.00;37.00;;;;;;;;110377;1261;21956;-48
2022/03/22 01:27:12;;;;;;;;;39.50;33.50;;;;;;;;110361;1261;19174;-49
2022/03/22 01:29:39;;;;;;;;;40.50;37.00;;;;;;;;110382;1262;17765;-48
2022/03/22 01:32:06;;;;;;;;;43.33;40.00;;;;;;;;110397;1262;17542;-50
2022/03/22 01:34:33;;;;;;;;;39.67;36.00;;;;;;;;110413;1262;19190;-48
2022/03/22 01:37:00;;;;;;;;;39.33;36.33;;;;;;;;110388;1262;21800;-48
2022/03/22 01:39:28;;;;;;;;;41.00;37.67;;;;;;;;110396;1261;17812;-48
2022/03/22 01:41:55;;;;;;;;;44.50;39.00;;;;;;;;110353;1261;19508;-49
2022/03/22 01:44:22;;;;;;;;;38.50;34.50;;;;;;;;110298;1261;17616;-49
2022/03/22 01:46:49;;;;;;;;;43.33;34.33;;;;;;;;110207;1264;17658;-48
2022/03/22 01:49:17;;;;;;;;;38.67;36.67;;;;;;;;110232;1262;19241;-49
2022/03/22 01:51:44;;;;;;;;;44.67;36.33;;;;;;;;110309;1261;17467;-48
2022/03/22 01:54:11;;;;;;;;;32.67;31.33;;;;;;;;110344;1261;17732;-49
2022/03/22 01:56:38;;;;;;;;;45.00;37.67;;;;;;;;110331;1262;17364;-49
2022/03/22 01:59:05;;;;;;;;;37.33;33.67;;;;;;;;110404;1261;19100;-47
2022/03/22 02:07:03;;;;;;;;;42.00;37.33;;;;;;;;110348;1262;19334;-50
2022/03/22 02:09:31;;;;;;;;;41.00;36.00;;;;;;;;110329;1262;17680;-48
2022/03/22 02:11:58;;;;;;;;;40.33;37.00;;;;;;;;110393;1262;17830;-47
2022/03/22 02:14:25;;;;;;;;;37.67;36.00;;;;;;;;110363;1262;19479;-48
2022/03/22 02:16:53;;;;;;;;;42.00;38.50;;;;;;;;110426;1262;23259;-49
2022/03/22 02:19:20;;;;;;;;;43.33;38.67;;;;;;;;110406;1262;17423;-49
2022/03/22 02:21:47;;;;;;;;;40.00;33.50;;;;;;;;110384;1261;23920;-49
2022/03/22 02:24:15;;;;;;;;;37.67;33.00;;;;;;;;110319;1261;21904;-48
2022/03/22 02:26:42;;;;;;;;;35.00;33.00;;;;;;;;110411;1261;21141;-49
2022/03/22 02:29:10;;;;;;;;;44.00;36.00;;;;;;;;110390;1262;17983;-48
2022/03/22 02:31:38;;;;;;;;;40.00;37.00;;;;;;;;110417;1261;17817;-48
2022/03/22 02:34:05;;;;;;;;;39.33;36.67;;;;;;;;110364;1261;19034;-49
2022/03/22 02:36:32;;;;;;;;;44.50;39.50;;;;;;;;110383;1262;19308;-49
2022/03/22 02:38:59;;;;;;;;;41.50;37.00;;;;;;;;110367;1261;19168;-52
2022/03/22 02:41:27;;;;;;;;;38.33;34.33;;;;;;;;110389;1262;17556;-48
2022/03/22 02:43:54;;;;;;;;;40.33;37.67;;;;;;;;110383;1262;20179;-47
2022/03/22 02:46:21;;;;;;;;;43.00;34.33;;;;;;;;110392;1262;17615;-49
2022/03/22 02:48:48;;;;;;;;;42.67;37.00;;;;;;;;110370;1262;17474;-48
2022/03/22 02:51:16;;;;;;;;;36.00;33.00;;;;;;;;110398;1262;17557;-49
2022/03/22 02:53:43;;;;;;;;;37.00;33.00;;;;;;;;110384;1261;18082;-49
2022/03/22 02:56:11;;;;;;;;;45.67;36.33;;;;;;;;110411;1262;24813;-47
2022/03/22 02:58:38;;;;;;;;;41.33;35.67;;;;;;;;110409;1262;17487;-49
2022/03/22 03:01:05;;;;;;;;;33.67;32.67;;;;;;;;110366;1262;22908;-47
2022/03/22 03:03:33;;;;;;;;;39.67;32.67;;;;;;;;110347;1261;20607;-48
2022/03/22 03:06:01;;;;;;;;;33.33;31.00;;;;;;;;110408;1262;19573;-49
2022/03/22 03:08:28;;;;;;;;;35.00;32.33;;;;;;;;110391;1262;19603;-48
2022/03/22 03:10:55;;;;;;;;;34.50;33.00;;;;;;;;110400;1262;21976;-48
2022/03/22 03:13:22;;;;;;;;;40.33;34.33;;;;;;;;110347;1262;17510;-49
2022/03/22 03:15:51;;;;;;;;;36.67;29.67;;;;;;;;110362;1262;19227;-49
2022/03/22 03:18:18;;;;;;;;;43.00;37.50;;;;;;;;110366;1262;21755;-48
2022/03/22 03:20:46;;;;;;;;;38.33;33.00;;;;;;;;110335;1262;17476;-49
2022/03/22 03:23:13;;;;;;;;;36.00;33.67;;;;;;;;110384;1261;21879;-48
2022/03/22 03:25:40;;;;;;;;;38.67;33.67;;;;;;;;110437;1261;17580;-48
2022/03/22 03:28:09;;;;;;;;;37.67;35.33;;;;;;;;110407;1262;19363;-48
2022/03/22 03:30:36;;;;;;;;;41.33;35.33;;;;;;;;110422;1262;17755;-48
2022/03/22 03:33:04;;;;;;;;;36.50;32.00;;;;;;;;110368;1262;19342;-49
2022/03/22 03:35:32;;;;;;;;;37.50;36.00;;;;;;;;110335;1262;17333;-49
2022/03/22 03:37:59;;;;;;;;;39.67;34.67;;;;;;;;110328;1262;22682;-50
2022/03/22 03:41:53;;;;;;;;;40.67;37.00;;;;;;;;110396;1262;17535;-50
2022/03/22 03:43:13;;;;;;;;;41.00;35.33;;;;;;;;110346;1261;21782;-49
2022/03/22 03:48:26;;;;;;;;;37.33;35.00;;;;;;;;110416;1261;19628;-49
2022/03/22 03:50:53;;;;;;;;;41.67;34.33;;;;;;;;110391;1262;17481;-48
2022/03/22 03:53:20;;;;;;;;;38.00;33.00;;;;;;;;110410;1262;17852;-49
2022/03/22 03:55:47;;;;;;;;;36.33;32.67;;;;;;;;110384;1261;17394;-49
2022/03/22 03:58:14;;;;;;;;;45.00;38.50;;;;;;;;110318;1262;19987;-49
2022/03/22 04:00:42;;;;;;;;;34.00;32.33;;;;;;;;110420;1261;17656;-50
2022/03/22 04:03:09;;;;;;;;;40.50;35.50;;;;;;;;110403;1262;17503;-48
2022/03/22 04:05:36;;;;;;;;;33.33;30.33;;;;;;;;110378;1262;21389;-47
2022/03/22 04:08:03;;;;;;;;;37.50;33.50;;;;;;;;110393;1262;21048;-49
2022/03/22 04:10:34;;;;;;;;;34.33;33.33;;;;;;;;110408;1261;19015;-47
2022/03/22 04:13:01;;;;;;;;;42.00;34.00;;;;;;;;110396;1262;17585;-49
2022/03/22 04:15:29;;;;;;;;;40.00;37.00;;;;;;;;110412;1261;20364;-48
2022/03/22 04:17:59;;;;;;;;;42.50;35.50;;;;;;;;110370;1261;17362;-49
2022/03/22 04:20:26;;;;;;;;;35.67;32.00;;;;;;;;110356;1262;19343;-48
2022/03/22 04:22:53;;;;;;;;;36.00;34.00;;;;;;;;110384;1261;18218;-48
2022/03/22 04:25:20;;;;;;;;;38.00;37.00;;;;;;;;110415;1262;22856;-48
2022/03/22 04:33:17;;;;;;;;;38.00;35.50;;;;;;;;110454;1262;19101;-49
2022/03/22 04:35:45;;;;;;;;;37.67;31.67;;;;;;;;110475;1262;17658;-48
2022/03/22 04:38:13;;;;;;;;;37.67;33.67;;;;;;;;110405;1261;17736;-51
2022/03/22 04:40:40;;;;;;;;;34.67;30.33;;;;;;;;110358;1262;22173;-49
2022/03/22 04:43:08;;;;;;;;;33.00;30.00;;;;;;;;110396;1262;17941;-48
2022/03/22 04:45:36;;;;;;;;;36.67;33.67;;;;;;;;110418;1262;17727;-48
2022/03/22 04:48:03;;;;;;;;;40.67;36.00;;;;;;;;110390;1262;17482;-49
2022/03/22 04:50:30;;;;;;;;;38.00;33.33;;;;;;;;110359;1262;19239;-50
2022/03/22 04:58:28;;;;;;;;;36.50;32.00;;;;;;;;110345;1262;17620;-49
2022/03/22 05:00:55;;;;;;;;;34.67;33.00;;;;;;;;110410;1261;17952;-50
2022/03/22 05:03:22;;;;;;;;;34.67;31.33;;;;;;;;110422;1262;17384;-47
2022/03/22 05:08:34;;;;;;;;;40.00;35.67;;;;;;;;110374;1262;20306;-49
2022/03/22 05:11:02;;;;;;;;;35.67;32.67;;;;;;;;110386;1260;17582;-48
2022/03/22 05:13:29;;;;;;;;;41.33;33.33;;;;;;;;110373;1262;17549;-49
2022/03/22 05:15:56;;;;;;;;;34.00;31.33;;;;;;;;110376;1262;18768;-49
2022/03/22 05:18:23;;;;;;;;;44.00;37.00;;;;;;;;110412;1262;17786;-46
2022/03/22 05:20:50;;;;;;;;;40.67;36.33;;;;;;;;110299;1262;17723;-48
2022/03/22 05:23:18;;;;;;;;;39.00;36.00;;;;;;;;110261;1261;18716;-50
2022/03/22 05:25:45;;;;;;;;;34.00;31.67;;;;;;;;110312;1261;21490;-48
2022/03/22 05:28:12;;;;;;;;;41.00;35.33;;;;;;;;110382;1261;17602;-48
2022/03/22 05:30:40;;;;;;;;;37.67;33.00;;;;;;;;110365;1261;20206;-47
2022/03/22 05:33:07;;;;;;;;;44.67;36.00;;;;;;;;110334;1262;20497;-47
2022/03/22 05:35:35;;;;;;;;;41.00;36.00;;;;;;;;110392;1262;17708;-48
2022/03/22 05:38:02;;;;;;;;;39.67;34.67;;;;;;;;110359;1261;18661;-48
2022/03/22 05:40:30;;;;;;;;;34.67;33.00;;;;;;;;110360;1262;17335;-49
2022/03/22 05:42:57;;;;;;;;;40.50;35.00;;;;;;;;110349;1262;21125;-48
2022/03/22 05:45:26;;;;;;;;;38.00;32.00;;;;;;;;110340;1260;17920;-48
2022/03/22 05:47:54;;;;;;;;;42.00;37.00;;;;;;;;110292;1262;19294;-50
2022/03/22 05:50:21;;;;;;;;;42.33;37.67;;;;;;;;110376;1262;21975;-49
2022/03/22 05:52:49;;;;;;;;;41.33;36.33;;;;;;;;110390;1262;17757;-47
2022/03/22 05:55:16;;;;;;;;;41.00;37.00;;;;;;;;110362;1262;17493;-48
2022/03/22 05:57:43;;;;;;;;;37.00;34.00;;;;;;;;110391;1262;19342;-52
2022/03/22 06:00:11;;;;;;;;;42.67;38.67;;;;;;;;110405;1262;17792;-50
2022/03/22 06:02:38;;;;;;;;;32.00;30.00;;;;;;;;110397;1261;19004;-50
2022/03/22 06:05:05;;;;;;;;;37.00;31.00;;;;;;;;110275;1262;19677;-49
2022/03/22 06:07:32;;;;;;;;;36.33;33.00;;;;;;;;110298;1260;17742;-51
2022/03/22 06:10:00;;;;;;;;;43.50;36.00;;;;;;;;110284;1261;17498;-49
2022/03/22 06:12:27;;;;;;;;;36.33;31.67;;;;;;;;110397;1261;17667;-51
2022/03/22 06:15:14;;;;;;;;;37.00;32.50;;;;;;;;110397;1262;17753;-50
2022/03/22 06:17:41;;;;;;;;;38.67;34.33;;;;;;;;110385;1261;19024;-50
2022/03/22 06:20:09;;;;;;;;;38.67;35.00;;;;;;;;110446;1261;17534;-49
2022/03/22 06:22:36;;;;;;;;;43.67;37.33;;;;;;;;110302;1262;17762;-49
2022/03/22 06:25:03;;;;;;;;;42.00;38.00;;;;;;;;110411;1261;19207;-50
2022/03/22 06:27:33;;;;;;;;;35.00;33.33;;;;;;;;110471;1262;17681;-49
2022/03/22 06:30:00;;;;;;;;;37.00;35.00;;;;;;;;110424;1261;17665;-49
2022/03/22 06:32:27;;;;;;;;;37.00;32.67;;;;;;;;110384;1261;21852;-50
2022/03/22 06:34:55;;;;;;;;;34.50;31.50;;;;;;;;110398;1261;17509;-50
2022/03/22 06:37:22;;;;;;;;;35.33;32.67;;;;;;;;110437;1262;21534;-49
2022/03/22 06:39:49;;;;;;;;;34.33;30.33;;;;;;;;110415;1262;17835;-50
2022/03/22 06:42:17;;;;;;;;;42.33;35.33;;;;;;;;110479;1262;20217;-50
2022/03/22 06:44:44;;;;;;;;;39.67;34.33;;;;;;;;110361;1262;17672;-50
2022/03/22 06:47:11;;;;;;;;;44.33;39.00;;;;;;;;110408;1262;19441;-49
2022/03/22 06:49:39;;;;;;;;;53.67;43.33;;;;;;;;110330;1262;19869;-50
2022/03/22 06:52:06;;;;;;;;;49.33;43.00;;;;;;;;110391;1261;19300;-50
2022/03/22 06:54:33;;;;;;;;;55.50;42.00;;;;;;;;110331;1262;21660;-51
2022/03/22 06:57:01;;;;;;;;;50.33;42.33;;;;;;;;110380;1262;21326;-49
2022/03/22 06:59:28;;;;;;;;;54.00;43.00;;;;;;;;110320;1262;17642;-49
2022/03/22 07:01:55;;;;;;;;;48.33;42.00;;;;;;;;110462;1261;19565;-48
2022/03/22 07:04:22;;;;;;;;;42.00;39.00;;;;;;;;110289;1262;21953;-49
2022/03/22 07:06:50;;;;;;;;;49.00;42.00;;;;;;;;110395;1261;17814;-51
2022/03/22 07:09:18;;;;;;;;;47.00;39.00;;;;;;;;110413;1262;19564;-50
2022/03/22 07:11:49;;;;;;;;;42.33;38.67;;;;;;;;110351;1262;17609;-49
2022/03/22 07:14:17;;;;;;;;;47.33;39.33;;;;;;;;110289;1262;19393;-54
2022/03/22 07:16:47;;;;;;;;;43.33;39.00;;;;;;;;110383;1261;17748;-50
2022/03/22 07:19:14;;;;;;;;;43.33;39.00;;;;;;;;110412;1262;17342;-51
2022/03/22 07:21:41;;;;;;;;;48.33;42.00;;;;;;;;110437;1262;17714;-50
2022/03/22 07:24:08;;;;;;;;;45.67;38.67;;;;;;;;110384;1262;19143;-49
2022/03/22 07:26:35;;;;;;;;;45.00;38.00;;;;;;;;110383;1262;21683;-49
2022/03/22 07:29:03;;;;;;;;;41.33;35.67;;;;;;;;110366;1262;17728;-50
2022/03/22 07:31:30;;;;;;;;;38.50;35.00;;;;;;;;110442;1261;17812;-50
2022/03/22 07:33:57;;;;;;;;;41.67;34.67;;;;;;;;110430;1261;17428;-50
2022/03/22 07:36:24;;;;;;;;;38.50;36.00;;;;;;;;110404;1262;20416;-48
2022/03/22 07:38:52;;;;;;;;;41.67;37.33;;;;;;;;110413;1262;17706;-49
2022/03/22 07:41:19;;;;;;;;;44.00;37.67;;;;;;;;110413;1262;19878;-52
2022/03/22 07:43:46;;;;;;;;;51.00;43.00;;;;;;;;110453;1261;17787;-50
2022/03/22 07:46:14;;;;;;;;;83.33;63.67;;;;;;;;110388;1262;17504;-49
2022/03/22 07:48:41;;;;;;;;;83.33;63.33;;;;;;;;110370;1262;22856;-49
2022/03/22 07:53:53;;;;;;;;;78.00;58.67;;;;;;;;110386;1262;17480;-53
2022/03/22 07:56:20;;;;;;;;;66.67;55.00;;;;;;;;110416;1262;17635;-50
2022/03/22 07:58:47;;;;;;;;;70.67;56.33;;;;;;;;110471;1261;20512;-51
2022/03/22 08:01:15;;;;;;;;;73.00;55.50;;;;;;;;110450;1261;17448;-48
2022/03/22 08:03:42;;;;;;;;;68.67;55.00;;;;;;;;110282;1261;22189;-50
2022/03/22 08:06:09;;;;;;;;;63.67;50.33;;;;;;;;110446;1262;19361;-50
2022/03/22 08:08:40;;;;;;;;;66.00;52.00;;;;;;;;110442;1262;19314;-49
2022/03/22 08:11:07;;;;;;;;;60.67;47.00;;;;;;;;110437;1261;19572;-51
2022/03/22 08:13:35;;;;;;;;;61.00;50.00;;;;;;;;110283;1261;18882;-48
2022/03/22 08:16:02;;;;;;;;;61.00;51.00;;;;;;;;110442;1262;21458;-50
2022/03/22 08:18:30;;;;;;;;;60.00;48.67;;;;;;;;110368;1262;23092;-47
2022/03/22 08:20:57;;;;;;;;;61.00;47.67;;;;;;;;110425;1261;18015;-48
2022/03/22 08:23:24;;;;;;;;;58.00;46.00;;;;;;;;110436;1262;22330;-49
2022/03/22 08:25:51;;;;;;;;;57.50;46.00;;;;;;;;110411;1262;21396;-49
2022/03/22 08:28:19;;;;;;;;;62.50;50.50;;;;;;;;110454;1262;18084;-49
2022/03/22 08:30:46;;;;;;;;;59.50;46.50;;;;;;;;110421;1262;17527;-52
2022/03/22 08:33:13;;;;;;;;;68.00;50.00;;;;;;;;110190;1262;19930;-51
2022/03/22 08:35:41;;;;;;;;;83.33;64.33;;;;;;;;110324;1261;19361;-52
2022/03/22 08:38:10;;;;;;;;;125.67;98.67;;;;;;;;110282;1261;19068;-49
2022/03/22 08:40:38;;;;;;;;;160.50;116.75;;;;;;;;110238;1262;17794;-49
2022/03/22 08:43:07;;;;;;;;;245.50;181.75;;;;;;;;110273;1261;19920;-50
2022/03/22 08:45:35;;;;;;;;;242.25;175.75;;;;;;;;110313;1261;18173;-50
2022/03/22 08:48:09;;;;;;;;;256.00;189.00;;;;;;;;110163;1262;186412;-48
2022/03/22 08:50:36;;;;;;;;;212.00;158.50;;;;;;;;110248;1262;17957;-51
2022/03/22 08:53:05;;;;;;;;;199.33;156.67;;;;;;;;110150;1262;20786;-51
2022/03/22 08:55:32;;;;;;;;;198.00;146.50;;;;;;;;110075;1262;19854;-52
2022/03/22 08:58:05;;;;;;;;;178.25;133.25;;;;;;;;110273;1262;21975;-54
2022/03/22 09:00:32;;;;;;;;;168.00;127.25;;;;;;;;110166;1262;17680;-48
2022/03/22 09:02:59;;;;;;;;;134.33;110.67;;;;;;;;110344;1262;17774;-50
2022/03/22 09:08:11;;;;;;;;;112.50;95.25;;;;;;;;110382;1261;17941;-49
2022/03/22 09:10:38;;;;;;;;;103.00;80.67;;;;;;;;110402;1262;18161;-47
2022/03/22 09:13:06;;;;;;;;;94.33;69.00;;;;;;;;110414;1262;19202;-52
2022/03/22 09:15:36;;;;;;;;;95.00;70.50;;;;;;;;110426;1261;17486;-50
2022/03/22 09:18:03;;;;;;;;;95.67;71.33;;;;;;;;110418;1261;20623;-48
2022/03/22 09:20:32;;;;;;;;;79.33;61.33;;;;;;;;110300;1262;18093;-49
2022/03/22 09:23:00;;;;;;;;;82.00;61.33;;;;;;;;110404;1262;17266;-48
2022/03/22 09:25:27;;;;;;;;;73.67;57.33;;;;;;;;110444;1261;17482;-51
2022/03/22 09:27:55;;;;;;;;;71.50;59.00;;;;;;;;110392;1262;20895;-49
2022/03/22 09:30:22;;;;;;;;;73.00;56.50;;;;;;;;110336;1261;20283;-47
2022/03/22 09:32:50;;;;;;;;;78.00;58.00;;;;;;;;110430;1261;17833;-50
2022/03/22 09:35:19;;;;;;;;;78.00;57.00;;;;;;;;110443;1261;17840;-49
2022/03/22 09:37:46;;;;;;;;;74.00;56.50;;;;;;;;110412;1261;17419;-50
2022/03/22 09:40:14;;;;;;;;;78.00;57.00;;;;;;;;110430;1262;19302;-50
2022/03/22 09:42:42;;;;;;;;;77.33;56.67;;;;;;;;110435;1262;17641;-50
2022/03/22 09:45:09;;;;;;;;;67.00;53.00;;;;;;;;110218;1264;17394;-50
2022/03/22 09:47:37;;;;;;;;;73.00;55.33;;;;;;;;110404;1262;19407;-51
2022/03/22 09:50:04;;;;;;;;;74.00;55.67;;;;;;;;110335;1261;17663;-51
2022/03/22 09:52:31;;;;;;;;;56.67;46.67;;;;;;;;110318;1261;17647;-50
2022/03/22 09:54:58;;;;;;;;;52.67;44.33;;;;;;;;110281;1262;18081;-48
2022/03/22 09:57:26;;;;;;;;;62.00;50.00;;;;;;;;110414;1262;21070;-49
2022/03/22 09:59:53;;;;;;;;;62.33;47.00;;;;;;;;110211;1261;17531;-48
2022/03/22 10:02:20;;;;;;;;;61.67;46.00;;;;;;;;110292;1262;20453;-49
2022/03/22 10:04:47;;;;;;;;;58.67;46.00;;;;;;;;110317;1261;19569;-49
2022/03/22 10:07:15;;;;;;;;;53.33;43.67;;;;;;;;110310;1262;18007;-49
2022/03/22 10:09:42;;;;;;;;;43.00;39.00;;;;;;;;110352;1262;17448;-51
2022/03/22 10:12:10;;;;;;;;;45.00;40.00;;;;;;;;110272;1262;19253;-49
2022/03/22 10:14:38;;;;;;;;;47.33;39.00;;;;;;;;110411;1262;17487;-49
2022/03/22 10:17:05;;;;;;;;;48.67;39.00;;;;;;;;110331;1262;17414;-49
2022/03/22 10:19:32;;;;;;;;;44.00;38.50;;;;;;;;110337;1261;21721;-49
2022/03/22 10:21:59;;;;;;;;;44.33;39.00;;;;;;;;110234;1261;17387;-51
2022/03/22 10:24:27;;;;;;;;;37.50;34.50;;;;;;;;110249;1262;21392;-51
2022/03/22 10:26:54;;;;;;;;;38.33;37.00;;;;;;;;110352;1261;17641;-49
2022/03/22 10:29:21;;;;;;;;;40.33;34.33;;;;;;;;110341;1262;20226;-50
2022/03/22 10:31:49;;;;;;;;;37.67;35.00;;;;;;;;110174;1261;17681;-49
2022/03/22 10:34:16;;;;;;;;;42.67;35.67;;;;;;;;110375;1261;17801;-48
2022/03/22 10:36:44;;;;;;;;;43.00;35.67;;;;;;;;110366;1262;19609;-49
2022/03/22 10:39:11;;;;;;;;;42.00;33.33;;;;;;;;110330;1262;17605;-50
2022/03/22 10:41:38;;;;;;;;;35.33;33.00;;;;;;;;110372;1262;20336;-53
2022/03/22 10:44:06;;;;;;;;;37.00;32.67;;;;;;;;110430;1261;17634;-51
2022/03/22 10:46:33;;;;;;;;;42.33;34.67;;;;;;;;110373;1262;21325;-50
2022/03/22 10:49:01;;;;;;;;;39.00;34.33;;;;;;;;110293;1261;18755;-51
2022/03/22 10:51:28;;;;;;;;;43.00;34.00;;;;;;;;110370;1262;20537;-51
2022/03/22 10:53:55;;;;;;;;;37.67;34.00;;;;;;;;110321;1262;17626;-51
2022/03/22 10:56:22;;;;;;;;;42.00;35.00;;;;;;;;110443;1262;19908;-46
2022/03/22 10:58:50;;;;;;;;;33.50;31.50;;;;;;;;110422;1262;19206;-51
2022/03/22 11:01:20;;;;;;;;;42.67;34.67;;;;;;;;110390;1261;20836;-51
2022/03/22 11:03:48;;;;;;;;;42.67;39.67;;;;;;;;110401;1261;17950;-50
2022/03/22 11:06:15;;;;;;;;;39.00;34.00;;;;;;;;110338;1261;18058;-50
2022/03/22 11:08:42;;;;;;;;;36.00;33.00;;;;;;;;110358;1261;20667;-50
2022/03/22 11:11:09;;;;;;;;;36.00;34.00;;;;;;;;110263;1261;23204;-52
2022/03/22 11:13:37;;;;;;;;;44.00;38.33;;;;;;;;110426;1262;19289;-51
2022/03/22 11:16:04;;;;;;;;;45.67;40.33;;;;;;;;110263;1264;17624;-50
2022/03/22 11:18:32;;;;;;;;;37.67;33.67;;;;;;;;110413;1261;19989;-51
2022/03/22 11:21:00;;;;;;;;;42.33;33.67;;;;;;;;110372;1261;17440;-49
2022/03/22 11:23:27;;;;;;;;;39.50;36.50;;;;;;;;110421;1261;20145;-51
2022/03/22 11:25:54;;;;;;;;;42.67;35.67;;;;;;;;110249;1262;17641;-50
2022/03/22 11:28:21;;;;;;;;;35.33;32.67;;;;;;;;110415;1262;19019;-51
2022/03/22 11:30:48;;;;;;;;;41.33;34.00;;;;;;;;110416;1262;18674;-50
2022/03/22 11:36:01;;;;;;;;;39.33;35.33;;;;;;;;110403;1261;20489;-48
2022/03/22 11:38:28;;;;;;;;;41.00;37.67;;;;;;;;110460;1261;17614;-48
2022/03/22 11:43:40;;;;;;;;;46.33;40.00;;;;;;;;110413;1261;19099;-51
2022/03/22 11:46:07;;;;;;;;;45.00;37.50;;;;;;;;110456;1261;17975;-53
2022/03/22 11:48:35;;;;;;;;;44.33;39.67;;;;;;;;110431;1262;17935;-51
2022/03/22 11:51:02;;;;;;;;;41.00;40.00;;;;;;;;110347;1261;20748;-49
2022/03/22 11:53:29;;;;;;;;;48.67;40.00;;;;;;;;110396;1261;17675;-48
2022/03/22 11:55:56;;;;;;;;;43.67;39.00;;;;;;;;110398;1261;17816;-46
2022/03/22 11:58:23;;;;;;;;;46.00;39.50;;;;;;;;110407;1262;17648;-50
2022/03/22 12:00:55;;;;;;;;;47.67;40.00;;;;;;;;110369;1262;22843;-51
2022/03/22 12:03:28;;;;;;;;;47.50;40.50;;;;;;;;110965;1262;17694;-50
2022/03/22 12:05:55;;;;;;;;;45.33;38.67;;;;;;;;110410;1262;17477;-49
2022/03/22 12:08:23;;;;;;;;;42.67;39.67;;;;;;;;110466;1262;17419;-50
2022/03/22 12:10:50;;;;;;;;;43.00;38.67;;;;;;;;110387;1261;17867;-49
2022/03/22 12:13:18;;;;;;;;;44.00;38.67;;;;;;;;110412;1262;22204;-49
2022/03/22 12:15:45;;;;;;;;;42.00;38.00;;;;;;;;110381;1262;21944;-50
2022/03/22 12:18:12;;;;;;;;;41.00;39.67;;;;;;;;110413;1261;17795;-48
2022/03/22 12:20:39;;;;;;;;;38.00;35.00;;;;;;;;110419;1261;17435;-52
2022/03/22 12:23:08;;;;;;;;;38.00;32.33;;;;;;;;110414;1262;19548;-50
2022/03/22 12:25:35;;;;;;;;;40.33;34.00;;;;;;;;110433;1262;17747;-51
2022/03/22 12:28:02;;;;;;;;;38.67;34.67;;;;;;;;110428;1262;17848;-50
2022/03/22 12:30:29;;;;;;;;;33.00;31.50;;;;;;;;110407;1261;19271;-48
2022/03/22 12:32:56;;;;;;;;;37.00;29.33;;;;;;;;110421;1261;18328;-49
2022/03/22 12:35:24;;;;;;;;;40.67;35.33;;;;;;;;110462;1262;17436;-49
2022/03/22 12:37:52;;;;;;;;;35.33;33.00;;;;;;;;110388;1262;22930;-50
2022/03/22 12:40:19;;;;;;;;;32.00;30.50;;;;;;;;110342;1262;18267;-49
2022/03/22 12:42:47;;;;;;;;;31.67;28.00;;;;;;;;110360;1261;17506;-50
2022/03/22 12:45:14;;;;;;;;;32.00;31.00;;;;;;;;110427;1262;19972;-48
2022/03/22 12:47:42;;;;;;;;;35.50;33.00;;;;;;;;110424;1261;18126;-49
2022/03/22 12:50:09;;;;;;;;;31.33;30.67;;;;;;;;110485;1261;17798;-50
2022/03/22 12:52:36;;;;;;;;;34.50;30.00;;;;;;;;110393;1261;17677;-52
2022/03/22 12:55:03;;;;;;;;;34.67;32.00;;;;;;;;110371;1261;18440;-51
2022/03/22 12:57:31;;;;;;;;;33.67;29.67;;;;;;;;110445;1262;19275;-49
2022/03/22 12:59:58;;;;;;;;;32.33;29.67;;;;;;;;110271;1261;32423;-49
2022/03/22 13:02:25;;;;;;;;;39.50;36.50;;;;;;;;110295;1262;17850;-51
2022/03/22 13:04:53;;;;;;;;;98.67;69.67;;;;;;;;110314;1262;19304;-54
2022/03/22 13:07:21;;;;;;;;;64.00;50.67;;;;;;;;110340;1262;17620;-49
2022/03/22 13:12:33;;;;;;;;;95.00;68.00;;;;;;;;110356;1262;19273;-49
2022/03/22 13:15:04;;;;;;;;;102.33;80.00;;;;;;;;110383;1261;17607;-50
2022/03/22 13:17:31;;;;;;;;;102.00;75.50;;;;;;;;110452;1262;21480;-49
2022/03/22 13:19:59;;;;;;;;;92.50;67.50;;;;;;;;110406;1262;22940;-50
2022/03/22 13:22:27;;;;;;;;;87.67;63.67;;;;;;;;110277;1261;17644;-48
2022/03/22 13:24:54;;;;;;;;;78.00;59.33;;;;;;;;110348;1262;18439;-49
2022/03/22 13:27:21;;;;;;;;;67.33;50.67;;;;;;;;110413;1261;17660;-50
2022/03/22 13:29:48;;;;;;;;;59.33;47.00;;;;;;;;110417;1262;17952;-50
2022/03/22 13:32:20;;;;;;;;;52.33;41.67;;;;;;;;110449;1261;20511;-49
2022/03/22 13:34:48;;;;;;;;;59.33;44.67;;;;;;;;110449;1261;17493;-50
2022/03/22 13:37:15;;;;;;;;;56.50;42.00;;;;;;;;110428;1262;17688;-52
2022/03/22 13:39:42;;;;;;;;;40.67;36.00;;;;;;;;110417;1261;20112;-49
2022/03/22 13:42:10;;;;;;;;;43.00;40.00;;;;;;;;110415;1261;17540;-54
2022/03/22 13:44:37;;;;;;;;;50.00;40.00;;;;;;;;110305;1261;17498;-50
2022/03/22 13:47:04;;;;;;;;;47.50;40.50;;;;;;;;110444;1262;20600;-48
2022/03/22 13:49:31;;;;;;;;;49.50;42.00;;;;;;;;110374;1261;19221;-50
2022/03/22 13:51:59;;;;;;;;;40.00;37.33;;;;;;;;110413;1261;17506;-48
2022/03/22 13:54:26;;;;;;;;;45.67;37.33;;;;;;;;110349;1261;20264;-49
2022/03/22 13:56:55;;;;;;;;;41.33;36.67;;;;;;;;110386;1262;17516;-48
2022/03/22 13:59:23;;;;;;;;;42.33;34.00;;;;;;;;110397;1261;17652;-48
2022/03/22 14:01:52;;;;;;;;;34.00;33.00;;;;;;;;110329;1262;19689;-51
2022/03/22 14:04:19;;;;;;;;;54.00;38.00;;;;;;;;110414;1262;17433;-50
2022/03/22 14:06:46;;;;;;;;;42.00;35.33;;;;;;;;110375;1262;18915;-49
2022/03/22 14:09:14;;;;;;;;;36.67;30.33;;;;;;;;110412;1262;17686;-49
2022/03/22 14:11:43;;;;;;;;;37.00;33.00;;;;;;;;110409;1262;19179;-49
2022/03/22 14:14:10;;;;;;;;;37.33;34.67;;;;;;;;110451;1261;18184;-50
2022/03/22 14:16:37;;;;;;;;;41.00;31.67;;;;;;;;110310;1262;19410;-52
2022/03/22 14:19:05;;;;;;;;;37.67;35.00;;;;;;;;110321;1261;17322;-54
2022/03/22 14:21:32;;;;;;;;;41.00;33.00;;;;;;;;110386;1261;17805;-51
2022/03/22 14:23:59;;;;;;;;;35.00;33.00;;;;;;;;110377;1261;20527;-52
2022/03/22 14:26:26;;;;;;;;;34.33;31.00;;;;;;;;110437;1262;17638;-49
2022/03/22 14:28:54;;;;;;;;;36.33;32.33;;;;;;;;110379;1262;19604;-52
2022/03/22 14:31:21;;;;;;;;;36.00;33.00;;;;;;;;110275;1262;20703;-50
2022/03/22 14:33:48;;;;;;;;;34.67;32.00;;;;;;;;110394;1261;17489;-49
2022/03/22 14:36:15;;;;;;;;;34.00;32.00;;;;;;;;110371;1262;17547;-48
2022/03/22 14:38:43;;;;;;;;;35.67;31.67;;;;;;;;110396;1262;18343;-49
2022/03/22 14:41:24;;;;;;;;;30.00;29.33;;;;;;;;110434;1261;17841;-49